Time;durP1;ratioP1;P1;durP2;ratioP2;P2;SDS_P1;SDS_P2;PMS_P1;PMS_P2;Temp;Humidity;BMP_temperature;BMP_pressure;BME280_temperature;BME280_humidity;BME280_pressure;Samples;Min_cycle;Max_cycle;Signal;HPM_P1;HPM_P2
2020/12/09 00:00:14;;;;;;;9.55;3.15;;;;;;;13.43;40.37;100653.63;4993928;28;20104;-76
2020/12/09 00:02:40;;;;;;;12.90;3.40;;;;;;;13.45;40.05;100641.22;4993945;28;20030;-76
2020/12/09 00:05:09;;;;;;;11.65;3.65;;;;;;;13.32;40.40;100645.00;4993912;28;20034;-75
2020/12/09 00:07:35;;;;;;;12.52;4.03;;;;;;;13.38;40.24;100646.44;4993799;28;20085;-75
2020/12/09 00:10:05;;;;;;;10.63;3.20;;;;;;;13.37;40.25;100653.03;4993606;28;20117;-80
2020/12/09 00:12:31;;;;;;;16.02;3.75;;;;;;;13.53;39.93;100650.50;4993797;28;20045;-75
2020/12/09 00:15:00;;;;;;;12.47;3.60;;;;;;;13.27;40.43;100659.72;4993645;28;20026;-76
2020/12/09 00:17:28;;;;;;;11.65;3.67;;;;;;;13.29;40.51;100662.94;4993536;28;20025;-84
2020/12/09 00:19:54;;;;;;;15.50;3.47;;;;;;;13.38;40.38;100653.84;4992851;28;20034;-75
2020/12/09 00:22:20;;;;;;;12.75;5.03;;;;;;;13.47;40.15;100654.59;4993517;28;20477;-76
2020/12/09 00:24:45;;;;;;;12.95;3.60;;;;;;;13.50;40.00;100657.47;4993578;28;20023;-76
2020/12/09 00:27:11;;;;;;;11.52;3.83;;;;;;;13.54;39.81;100644.69;4993556;28;20029;-75
2020/12/09 00:29:37;;;;;;;12.18;3.97;;;;;;;13.52;39.83;100651.63;4993479;28;20026;-75
2020/12/09 00:32:04;;;;;;;13.38;3.80;;;;;;;13.62;39.70;100648.50;4993208;28;20038;-79
2020/12/09 00:34:30;;;;;;;16.25;4.00;;;;;;;13.68;39.62;100652.66;4993425;28;20537;-75
2020/12/09 00:36:57;;;;;;;25.63;7.10;;;;;;;13.64;39.48;100659.94;4993655;28;20493;-74
2020/12/09 00:39:22;;;;;;;25.35;5.32;;;;;;;13.62;39.46;100664.97;4993145;28;20457;-76
2020/12/09 00:41:48;;;;;;;22.35;5.85;;;;;;;13.59;39.37;100676.59;4993214;28;20038;-74
2020/12/09 00:44:14;;;;;;;16.83;4.00;;;;;;;13.54;39.40;100674.09;4993252;28;20389;-75
2020/12/09 00:46:39;;;;;;;14.80;3.72;;;;;;;13.47;39.43;100673.81;4993276;28;20485;-74
2020/12/09 00:49:05;;;;;;;9.80;4.03;;;;;;;13.45;39.37;100665.09;4993133;28;20034;-74
2020/12/09 00:51:30;;;;;;;12.95;4.03;;;;;;;13.39;39.63;100660.94;4993384;28;20088;-76
2020/12/09 00:53:56;;;;;;;16.38;3.95;;;;;;;13.36;39.53;100662.41;4993241;28;20080;-74
2020/12/09 00:56:21;;;;;;;13.65;4.32;;;;;;;13.36;39.37;100667.09;4991877;28;20028;-75
2020/12/09 00:58:47;;;;;;;16.33;4.57;;;;;;;13.26;39.66;100660.88;4993048;28;20062;-74
2020/12/09 01:01:13;;;;;;;18.60;4.15;;;;;;;13.19;40.06;100668.78;4993093;28;20061;-76
2020/12/09 01:03:39;;;;;;;12.15;3.80;;;;;;;13.13;39.83;100659.13;4992953;28;20031;-75
2020/12/09 01:06:06;;;;;;;14.77;4.55;;;;;;;12.96;40.17;100665.53;4993142;28;20357;-75
2020/12/09 01:08:32;;;;;;;10.93;4.33;;;;;;;12.90;40.36;100658.59;4993045;28;20031;-75
2020/12/09 01:10:59;;;;;;;12.32;3.80;;;;;;;12.87;40.36;100656.53;4992972;28;20034;-75
2020/12/09 01:13:24;;;;;;;13.75;4.05;;;;;;;12.80;40.65;100656.25;4993055;28;20129;-78
2020/12/09 01:15:50;;;;;;;12.85;4.05;;;;;;;12.83;40.60;100649.28;4992931;28;20105;-75
2020/12/09 01:18:16;;;;;;;12.52;5.13;;;;;;;12.57;41.43;100649.41;4992988;28;20106;-75
2020/12/09 01:20:42;;;;;;;21.30;6.15;;;;;;;12.61;41.43;100642.13;4993237;28;20031;-75
2020/12/09 01:23:08;;;;;;;14.27;3.70;;;;;;;12.58;41.62;100648.28;4996578;28;20095;-80
2020/12/09 01:25:34;;;;;;;12.27;3.80;;;;;;;12.67;41.43;100644.34;4996819;28;20057;-77
2020/12/09 01:28:03;;;;;;;14.73;4.13;;;;;;;12.83;41.08;100650.09;4996773;28;20073;-75
2020/12/09 01:30:30;;;;;;;9.27;3.08;;;;;;;12.77;41.26;100646.75;4996710;28;20033;-75
2020/12/09 01:32:57;;;;;;;20.25;4.90;;;;;;;12.92;40.99;100642.66;4996661;28;20142;-76
2020/12/09 01:35:23;;;;;;;17.27;6.03;;;;;;;12.94;40.78;100645.06;4996875;28;20358;-77
2020/12/09 01:37:49;;;;;;;16.50;3.65;;;;;;;12.96;40.81;100648.25;4996593;28;20033;-75
2020/12/09 01:40:16;;;;;;;11.10;3.67;;;;;;;12.92;40.84;100656.38;4996443;28;20082;-76
2020/12/09 01:42:41;;;;;;;11.55;3.80;;;;;;;12.94;40.68;100659.56;4996476;28;20034;-75
2020/12/09 01:45:07;;;;;;;12.63;3.33;;;;;;;13.12;40.47;100656.72;4995192;28;20026;-75
2020/12/09 01:47:33;;;;;;;15.80;4.65;;;;;;;12.99;40.68;100658.56;4996668;28;20025;-75
2020/12/09 01:49:59;;;;;;;8.00;3.30;;;;;;;12.97;40.71;100656.16;4996308;28;20496;-75
2020/12/09 01:52:26;;;;;;;11.47;3.27;;;;;;;13.11;40.37;100664.16;4996194;28;20088;-75
2020/12/09 01:54:55;;;;;;;10.07;3.37;;;;;;;13.11;40.35;100661.41;4996255;28;20034;-77
2020/12/09 01:57:22;;;;;;;8.97;3.83;;;;;;;13.00;40.65;100660.19;4996267;28;20041;-75
2020/12/09 01:59:48;;;;;;;12.50;3.70;;;;;;;12.96;40.90;100671.00;4996191;28;20031;-78
2020/12/09 02:02:14;;;;;;;16.67;4.20;;;;;;;12.98;40.71;100668.72;4996161;28;20085;-85
2020/12/09 02:04:41;;;;;;;13.83;3.77;;;;;;;13.00;40.75;100658.25;4996064;28;20026;-76
2020/12/09 02:07:07;;;;;;;10.43;3.77;;;;;;;13.07;40.62;100652.22;4995991;28;20030;-75
2020/12/09 02:09:32;;;;;;;7.38;3.00;;;;;;;13.11;40.63;100657.88;4995957;28;20109;-76
2020/12/09 02:11:58;;;;;;;12.10;3.63;;;;;;;13.16;40.66;100654.94;4995863;28;20045;-76
2020/12/09 02:14:24;;;;;;;15.33;3.50;;;;;;;13.20;40.64;100653.16;4996140;28;20033;-75
2020/12/09 02:16:56;;;;;;;9.77;3.80;;;;;;;13.23;40.63;100658.00;4995921;28;20026;-75
2020/12/09 02:19:23;;;;;;;12.77;4.17;;;;;;;13.23;40.51;100661.53;4995889;28;20023;-84
2020/12/09 02:21:49;;;;;;;13.90;3.15;;;;;;;13.23;40.79;100663.47;4995990;28;20385;-75
2020/12/09 02:24:15;;;;;;;8.75;2.67;;;;;;;13.26;40.45;100666.34;4995783;28;20060;-75
2020/12/09 02:26:43;;;;;;;11.07;3.60;;;;;;;13.32;40.38;100665.03;4995951;28;20389;-77
2020/12/09 02:29:09;;;;;;;12.15;3.72;;;;;;;13.28;40.67;100668.75;4995626;28;20073;-75
2020/12/09 02:31:35;;;;;;;8.35;2.70;;;;;;;13.28;40.62;100666.00;4995565;28;20436;-75
2020/12/09 02:34:00;;;;;;;10.97;3.00;;;;;;;13.29;40.53;100668.41;4994290;28;20106;-76
2020/12/09 02:36:27;;;;;;;10.03;2.80;;;;;;;13.21;40.61;100672.00;4995473;28;20122;-76
2020/12/09 02:38:53;;;;;;;10.17;3.33;;;;;;;13.20;40.56;100669.63;4995268;28;20125;-75
2020/12/09 02:41:19;;;;;;;14.48;3.47;;;;;;;13.19;40.55;100670.72;4995497;28;20544;-84
2020/12/09 02:43:44;;;;;;;10.53;2.90;;;;;;;13.16;40.55;100680.44;4977931;28;20030;-75
2020/12/09 02:46:10;;;;;;;9.35;2.70;;;;;;;13.12;40.55;100668.50;4995214;28;20085;-80
2020/12/09 02:48:35;;;;;;;11.45;3.22;;;;;;;13.13;40.35;100681.06;4995344;28;20030;-83
2020/12/09 02:51:01;;;;;;;13.27;4.43;;;;;;;13.13;40.51;100670.09;4995248;28;20512;-84
2020/12/09 02:53:26;;;;;;;15.33;3.53;;;;;;;13.11;40.54;100674.31;4995209;28;20022;-80
2020/12/09 02:55:52;;;;;;;14.43;3.85;;;;;;;12.80;41.30;100674.63;4995135;28;20038;-84
2020/12/09 02:58:18;;;;;;;11.40;3.47;;;;;;;13.02;40.83;100679.84;4995096;28;20026;-85
2020/12/09 03:00:43;;;;;;;13.17;3.00;;;;;;;13.07;40.71;100671.41;4995159;28;20105;-75
2020/12/09 03:03:09;;;;;;;9.00;2.73;;;;;;;13.12;40.66;100660.28;4995052;28;20054;-76
2020/12/09 03:05:34;;;;;;;12.37;2.80;;;;;;;13.07;40.75;100665.94;4995305;28;20077;-80
2020/12/09 03:08:00;;;;;;;12.27;3.10;;;;;;;13.29;40.20;100673.91;4995230;28;20054;-75
2020/12/09 03:10:26;;;;;;;10.83;2.80;;;;;;;13.19;40.33;100667.97;4995193;28;20133;-75
2020/12/09 03:12:51;;;;;;;11.30;3.20;;;;;;;13.17;40.53;100659.28;4994827;28;20026;-75
2020/12/09 03:15:17;;;;;;;10.98;2.75;;;;;;;13.23;40.45;100668.97;4994836;28;20026;-76
2020/12/09 03:17:42;;;;;;;12.87;3.33;;;;;;;13.38;39.85;100664.84;4994851;28;20031;-76
2020/12/09 03:20:08;;;;;;;13.05;3.30;;;;;;;13.30;40.41;100664.56;4994982;28;20026;-75
2020/12/09 03:22:33;;;;;;;8.63;3.03;;;;;;;13.50;39.85;100667.63;4994743;28;20488;-75
2020/12/09 03:24:59;;;;;;;12.45;2.80;;;;;;;13.49;40.02;100664.09;4994622;28;20030;-76
2020/12/09 03:27:25;;;;;;;7.77;2.00;;;;;;;13.62;39.43;100662.22;4994552;28;20026;-76
2020/12/09 03:29:50;;;;;;;9.27;3.97;;;;;;;13.68;39.86;100660.91;4994529;28;20030;-76
2020/12/09 03:32:16;;;;;;;12.90;3.15;;;;;;;13.74;39.80;100655.97;4994394;28;20380;-75
2020/12/09 03:34:41;;;;;;;15.10;2.70;;;;;;;13.80;39.71;100660.94;4994487;28;20541;-76
2020/12/09 03:37:07;;;;;;;12.97;3.00;;;;;;;13.78;39.87;100663.22;4994430;28;20369;-85
2020/12/09 03:39:32;;;;;;;11.90;4.00;;;;;;;13.86;39.82;100659.59;4994082;28;20042;-75
2020/12/09 03:41:58;;;;;;;11.90;2.70;;;;;;;13.88;39.70;100653.75;4994327;28;20026;-76
2020/12/09 03:44:24;;;;;;;10.07;3.43;;;;;;;13.98;39.72;100655.28;4993784;28;20030;-75
2020/12/09 03:46:49;;;;;;;9.43;3.27;;;;;;;14.04;39.52;100656.69;4994139;28;20029;-75
2020/12/09 03:49:15;;;;;;;9.40;2.73;;;;;;;13.98;39.95;100655.28;4994155;28;20027;-76
2020/12/09 03:51:40;;;;;;;8.48;3.08;;;;;;;14.08;39.68;100644.69;4994059;28;20030;-75
2020/12/09 03:54:06;;;;;;;11.40;2.85;;;;;;;13.94;40.03;100637.88;4992839;28;20028;-75
2020/12/09 03:56:31;;;;;;;7.10;2.57;;;;;;;13.84;40.24;100631.66;4976632;28;20030;-76
2020/12/09 03:58:57;;;;;;;17.80;4.18;;;;;;;13.88;39.94;100616.09;4994005;28;20031;-76
2020/12/09 04:01:23;;;;;;;9.57;3.58;;;;;;;13.86;40.05;100618.41;4993935;28;20026;-76
2020/12/09 04:03:48;;;;;;;13.43;3.97;;;;;;;13.87;39.93;100617.25;4993871;28;20025;-75
2020/12/09 04:06:14;;;;;;;15.30;2.70;;;;;;;13.84;39.52;100617.13;4993871;28;20026;-75
2020/12/09 04:08:39;;;;;;;9.93;3.80;;;;;;;13.63;40.37;100619.09;4993845;28;20034;-75
2020/12/09 04:11:05;;;;;;;10.52;3.40;;;;;;;13.74;39.79;100618.34;4993712;28;20057;-75
2020/12/09 04:13:31;;;;;;;10.98;3.30;;;;;;;13.78;39.59;100616.53;4993795;28;20436;-76
2020/12/09 04:15:56;;;;;;;14.37;2.50;;;;;;;13.73;39.66;100616.72;4993782;28;20041;-74
2020/12/09 04:18:23;;;;;;;8.87;2.57;;;;;;;13.53;40.04;100607.41;4993665;28;20120;-74
2020/12/09 04:20:48;;;;;;;10.53;2.73;;;;;;;13.55;39.83;100612.53;4993592;28;20124;-76
2020/12/09 04:23:14;;;;;;;11.27;4.17;;;;;;;13.37;40.25;100606.38;4993546;28;20065;-82
2020/12/09 04:25:39;;;;;;;14.10;2.93;;;;;;;13.10;40.85;100615.91;4993561;28;20038;-74
2020/12/09 04:28:05;;;;;;;11.20;2.97;;;;;;;13.28;40.45;100614.69;4993549;28;20034;-74
2020/12/09 04:30:31;;;;;;;9.20;2.80;;;;;;;13.31;40.29;100613.22;4993445;28;20027;-74
2020/12/09 04:32:56;;;;;;;12.37;2.90;;;;;;;13.27;40.13;100599.34;4993395;28;20118;-76
2020/12/09 04:35:22;;;;;;;14.68;3.13;;;;;;;13.03;40.92;100599.19;4993369;28;20030;-74
2020/12/09 04:37:48;;;;;;;10.10;3.13;;;;;;;13.06;40.60;100593.00;4993741;28;20030;-74
2020/12/09 04:40:21;;;;;;;9.77;2.73;;;;;;;12.95;40.67;100609.06;4954761;28;20039;-80
2020/12/09 04:43:01;;;;;;;13.57;3.17;;;;;;;12.47;41.78;100601.25;4954660;28;20031;-81
2020/12/09 04:45:32;;;;;;;10.65;3.97;;;;;;;12.75;40.80;100599.66;4954379;28;20023;-74
2020/12/09 04:48:05;;;;;;;13.20;3.43;;;;;;;12.81;40.72;100596.72;4954932;28;20385;-76
2020/12/09 04:50:35;;;;;;;12.73;3.70;;;;;;;12.76;40.52;100594.97;4954428;28;20474;-75
2020/12/09 04:53:18;;;;;;;;;;;;;;;12.62;40.94;100588.91;4955001;29;20398;-75
2020/12/09 04:55:52;;;;;;;10.57;3.70;;;;;;;12.53;41.17;100594.44;4953971;28;19914;-75
2020/12/09 04:58:42;;;;;;;20.20;3.83;;;;;;;12.79;40.36;100594.31;4954530;28;20038;-75
2020/12/09 05:01:12;;;;;;;7.60;2.55;;;;;;;12.78;40.30;100596.25;4948447;28;20090;-75
2020/12/09 05:03:50;;;;;;;8.97;3.90;;;;;;;12.91;40.19;100591.66;4954745;28;20035;-75
2020/12/09 05:06:20;;;;;;;15.07;3.03;;;;;;;13.04;39.86;100590.59;4954366;28;20122;-75
2020/12/09 05:08:52;;;;;;;8.63;2.83;;;;;;;13.10;39.82;100587.69;4954656;28;20024;-75
2020/12/09 05:11:22;;;;;;;8.33;3.10;;;;;;;13.15;39.54;100590.22;4954385;28;20039;-75
2020/12/09 05:13:52;;;;;;;8.57;2.77;;;;;;;13.16;39.48;100603.63;4954423;28;20506;-76
2020/12/09 05:16:19;;;;;;;8.25;2.97;;;;;;;13.15;39.58;100598.44;4954617;28;20078;-75
2020/12/09 05:18:45;;;;;;;15.07;3.07;;;;;;;13.17;39.56;100587.97;4954295;28;20393;-75
2020/12/09 05:21:15;;;;;;;13.80;3.60;;;;;;;13.14;39.57;100583.13;4954297;28;20039;-76
2020/12/09 05:23:51;;;;;;;8.57;3.13;;;;;;;13.17;39.33;100586.00;4969084;28;20024;-75
2020/12/09 05:26:34;;;;;;;13.40;2.97;;;;;;;12.72;39.99;100586.63;4954313;28;20364;-76
2020/12/09 05:29:08;;;;;;;31.13;4.30;;;;;;;13.02;39.63;100594.84;4953214;28;20039;-76
2020/12/09 05:31:35;;;;;;;14.10;3.30;;;;;;;13.18;39.33;100590.34;4952391;28;20081;-76
2020/12/09 05:34:01;;;;;;;11.88;2.92;;;;;;;13.17;39.39;100582.47;4954096;28;20430;-83
2020/12/09 05:36:27;;;;;;;11.03;3.03;;;;;;;13.21;39.43;100573.25;4954171;28;20038;-75
2020/12/09 05:39:13;;;;;;;10.57;3.10;;;;;;;13.22;39.29;100574.03;4970547;28;20043;-75
2020/12/09 05:41:39;;;;;;;13.23;2.90;;;;;;;13.16;39.62;100559.72;4992727;28;20046;-75
2020/12/09 05:44:05;;;;;;;12.77;3.40;;;;;;;13.20;39.43;100559.88;4992740;28;20030;-75
2020/12/09 05:46:30;;;;;;;16.00;4.00;;;;;;;13.22;39.44;100557.59;4992648;28;20121;-75
2020/12/09 05:48:56;;;;;;;9.20;2.63;;;;;;;13.24;39.16;100555.34;4992720;28;20110;-80
2020/12/09 05:51:22;;;;;;;11.80;3.33;;;;;;;13.30;39.30;100557.53;4992561;28;20030;-75
2020/12/09 05:53:48;;;;;;;14.60;2.88;;;;;;;13.26;39.28;100558.53;4992745;28;20110;-76
2020/12/09 05:56:16;;;;;;;10.37;2.90;;;;;;;13.23;39.24;100557.28;4992695;28;20027;-75
2020/12/09 05:58:43;;;;;;;12.53;3.13;;;;;;;13.33;39.16;100547.81;4992601;28;20034;-76
2020/12/09 06:01:12;;;;;;;13.27;3.70;;;;;;;13.42;38.88;100542.25;4992880;28;20085;-84
2020/12/09 06:03:41;;;;;;;11.97;3.37;;;;;;;13.49;38.70;100537.81;4992583;28;20034;-75
2020/12/09 06:06:08;;;;;;;13.70;3.38;;;;;;;13.50;38.80;100539.44;4992831;28;20053;-76
2020/12/09 06:08:42;;;;;;;15.80;3.47;;;;;;;13.48;38.71;100535.44;4995247;28;20359;-75
2020/12/09 06:11:08;;;;;;;7.43;3.17;;;;;;;13.50;38.71;100533.13;4996311;28;20030;-75
2020/12/09 06:13:34;;;;;;;10.23;2.97;;;;;;;13.46;38.72;100527.53;4995936;28;20026;-75
2020/12/09 06:16:06;;;;;;;15.23;3.70;;;;;;;13.50;38.57;100519.41;4995948;28;20030;-75
2020/12/09 06:18:33;;;;;;;10.90;3.30;;;;;;;13.49;38.62;100520.56;4995916;28;20101;-84
2020/12/09 06:20:59;;;;;;;6.37;3.27;;;;;;;13.56;38.65;100515.31;4996112;28;20033;-75
2020/12/09 06:23:27;;;;;;;8.97;3.10;;;;;;;13.63;38.43;100517.53;4995782;28;20080;-76
2020/12/09 06:25:58;;;;;;;12.87;2.93;;;;;;;13.71;38.25;100516.63;4995778;28;20113;-75
2020/12/09 06:28:27;;;;;;;9.20;3.40;;;;;;;13.72;38.31;100516.28;4995690;28;20041;-76
2020/12/09 06:30:55;;;;;;;10.13;3.23;;;;;;;13.66;38.31;100514.88;4995590;28;20042;-75
2020/12/09 06:33:53;;;;;;;10.13;2.77;;;;;;;13.67;38.24;100521.97;4995870;28;20030;-75
2020/12/09 06:36:27;;;;;;;10.00;3.90;;;;;;;13.69;37.98;100527.94;4995639;28;20034;-75
2020/12/09 06:39:05;;;;;;;14.30;3.17;;;;;;;13.55;38.69;100517.28;4995348;28;20058;-75
2020/12/09 06:41:35;;;;;;;13.37;2.93;;;;;;;13.73;38.50;100515.13;4995545;28;20400;-75
2020/12/09 06:44:04;;;;;;;6.53;3.00;;;;;;;13.75;38.17;100510.13;4995765;28;20354;-75
2020/12/09 06:46:36;;;;;;;14.23;3.17;;;;;;;13.69;38.37;100519.72;4995582;28;20035;-79
2020/12/09 06:49:02;;;;;;;14.93;3.30;;;;;;;13.74;38.41;100519.47;4995366;28;20037;-84
2020/12/09 06:51:36;;;;;;;11.23;2.87;;;;;;;13.69;38.37;100516.97;4995220;28;20053;-75
2020/12/09 06:54:15;;;;;;;12.10;4.03;;;;;;;13.63;38.62;100518.31;4977811;28;20029;-75
2020/12/09 06:56:42;;;;;;;9.37;2.77;;;;;;;13.69;38.61;100516.97;4995127;28;20085;-75
2020/12/09 06:59:26;;;;;;;15.97;3.13;;;;;;;13.69;38.56;100516.97;4995388;28;20030;-76
2020/12/09 07:02:05;;;;;;;9.53;3.03;;;;;;;13.79;38.53;100518.47;4995018;28;20026;-75
2020/12/09 07:04:52;;;;;;;13.73;3.58;;;;;;;13.76;38.37;100525.47;4995183;28;20034;-86
2020/12/09 07:07:29;;;;;;;10.13;3.10;;;;;;;13.76;38.41;100528.22;4994534;28;20030;-83
2020/12/09 07:09:54;;;;;;;8.77;2.80;;;;;;;13.68;38.76;100520.88;4994653;28;20018;-83
2020/12/09 07:12:21;;;;;;;10.02;2.95;;;;;;;13.73;38.75;100517.88;4993900;28;20036;-80
2020/12/09 07:14:48;;;;;;;12.07;3.20;;;;;;;13.91;38.50;100520.47;4994145;28;20030;-82
2020/12/09 07:17:16;;;;;;;13.00;2.60;;;;;;;13.97;38.55;100516.31;4992945;28;20030;-83
2020/12/09 07:19:41;;;;;;;8.30;2.67;;;;;;;14.09;38.39;100513.59;4993120;28;20378;-78
2020/12/09 07:22:07;;;;;;;11.83;3.53;;;;;;;14.16;38.16;100513.84;4994566;28;20022;-84
2020/12/09 07:24:32;;;;;;;8.20;4.07;;;;;;;14.12;38.36;100513.72;4994529;28;20404;-76
2020/12/09 07:26:58;;;;;;;11.37;4.17;;;;;;;14.16;38.42;100511.09;4994042;28;20030;-81
2020/12/09 07:29:23;;;;;;;9.88;3.20;;;;;;;14.26;38.22;100515.34;4994166;28;20053;-81
2020/12/09 07:31:49;;;;;;;20.13;3.50;;;;;;;14.24;38.38;100507.44;4993426;28;20030;-76
2020/12/09 07:34:15;;;;;;;10.87;3.27;;;;;;;14.23;38.40;100508.59;4993374;28;20109;-76
2020/12/09 07:36:52;;;;;;;11.37;4.50;;;;;;;14.02;38.71;100503.19;4992940;28;20046;-76
2020/12/09 07:39:34;;;;;;;8.23;2.17;;;;;;;14.09;38.74;100502.63;4993781;28;20607;-83
2020/12/09 07:42:01;;;;;;;15.33;3.40;;;;;;;14.15;38.63;100498.50;4994342;28;20042;-75
2020/12/09 07:44:28;;;;;;;11.90;3.80;;;;;;;13.91;39.32;100493.00;4994059;28;20112;-76
2020/12/09 07:46:58;;;;;;;9.20;2.67;;;;;;;13.93;39.18;100485.22;4994192;28;20022;-76
2020/12/09 07:49:25;;;;;;;13.43;3.38;;;;;;;13.99;39.06;100492.88;4994430;28;20033;-75
2020/12/09 07:51:53;;;;;;;12.70;3.33;;;;;;;14.01;38.65;100489.78;4992901;28;20030;-76
2020/12/09 07:54:22;;;;;;;11.33;3.97;;;;;;;14.15;38.76;100480.06;4980253;28;20027;-78
2020/12/09 07:56:47;;;;;;;13.60;3.60;;;;;;;14.14;38.94;100481.22;4992563;28;20418;-77
2020/12/09 07:59:14;;;;;;;13.63;3.70;;;;;;;14.08;39.13;100484.53;4994020;28;20022;-77
2020/12/09 08:01:40;;;;;;;7.73;2.20;;;;;;;14.15;38.97;100473.78;4980834;28;20023;-78
2020/12/09 08:04:07;;;;;;;10.00;2.93;;;;;;;14.20;39.20;100479.03;4974503;28;20034;-78
2020/12/09 08:06:35;;;;;;;10.20;2.93;;;;;;;14.26;39.20;100474.91;4957180;28;20392;-77
2020/12/09 08:09:15;;;;;;;20.53;3.27;;;;;;;14.12;39.29;100471.69;4974426;28;20018;-77
2020/12/09 08:11:44;;;;;;;10.93;2.65;;;;;;;14.26;39.04;100474.91;4973881;28;20496;-78
2020/12/09 08:14:13;;;;;;;11.60;3.25;;;;;;;14.36;38.93;100471.72;4977365;28;20041;-78
2020/12/09 08:16:39;;;;;;;11.40;3.13;;;;;;;14.30;39.11;100475.84;4977647;28;20373;-77
2020/12/09 08:19:09;;;;;;;16.00;2.47;;;;;;;14.30;39.23;100473.09;4974310;28;20030;-77
2020/12/09 08:21:35;;;;;;;8.67;2.67;;;;;;;14.28;39.34;100472.63;4976127;28;20011;-78
2020/12/09 08:24:11;;;;;;;15.73;4.43;;;;;;;14.32;39.19;100462.53;4976678;28;21232;-78
2020/12/09 08:26:38;;;;;;;9.17;2.63;;;;;;;14.41;39.18;100454.97;4976801;28;20030;-79
2020/12/09 08:29:07;;;;;;;11.77;5.93;;;;;;;14.49;39.04;100455.22;4976223;28;20059;-78
2020/12/09 08:31:33;;;;;;;10.23;2.17;;;;;;;14.48;39.33;100450.88;4979224;28;20034;-78
2020/12/09 08:33:59;;;;;;;7.97;2.63;;;;;;;14.50;39.42;100443.06;4975914;28;20083;-79
2020/12/09 08:36:26;;;;;;;8.77;2.17;;;;;;;14.58;39.60;100444.88;4974946;28;20038;-81
2020/12/09 08:38:58;;;;;;;13.73;3.27;;;;;;;14.66;39.10;100439.28;4975359;28;20064;-85
2020/12/09 08:41:32;;;;;;;12.50;3.37;;;;;;;14.77;39.22;100439.59;4975485;28;20045;-77
2020/12/09 08:44:00;;;;;;;19.05;3.60;;;;;;;14.83;38.92;100451.16;4975848;28;20030;-77
2020/12/09 08:46:27;;;;;;;16.27;4.30;;;;;;;14.80;39.33;100427.88;4975299;28;20500;-77
2020/12/09 08:48:54;;;;;;;17.83;4.87;;;;;;;14.85;39.03;100419.38;4976455;28;20034;-77
2020/12/09 08:51:25;;;;;;;24.20;6.00;;;;;;;14.90;39.06;100419.16;4974747;28;20424;-83
2020/12/09 08:53:51;;;;;;;22.50;5.18;;;;;;;15.14;38.80;100417.44;4979115;28;20118;-80
2020/12/09 08:56:24;;;;;;;25.07;5.10;;;;;;;15.23;38.63;100418.88;4992863;28;20033;-78
2020/12/09 08:58:49;;;;;;;19.80;5.90;;;;;;;15.36;38.42;100414.13;4992729;28;20031;-77
2020/12/09 09:01:15;;;;;;;19.52;4.45;;;;;;;15.15;38.77;100413.53;4992532;28;20085;-77
2020/12/09 09:03:41;;;;;;;14.82;3.90;;;;;;;15.18;39.03;100410.06;4992187;28;20378;-78
2020/12/09 09:06:07;;;;;;;15.85;3.47;;;;;;;15.25;39.05;100413.00;4992616;28;20033;-84
2020/12/09 09:08:32;;;;;;;12.98;3.17;;;;;;;15.21;39.19;100414.88;4992512;28;20396;-78
2020/12/09 09:10:58;;;;;;;10.98;3.55;;;;;;;15.37;38.96;100406.66;4992381;28;20520;-78
2020/12/09 09:13:24;;;;;;;12.60;3.30;;;;;;;15.22;39.40;100408.22;4992702;28;20397;-84
2020/12/09 09:15:49;;;;;;;11.68;3.85;;;;;;;15.39;39.02;100399.63;4992577;28;20072;-85
2020/12/09 09:18:15;;;;;;;11.85;3.85;;;;;;;15.31;39.06;100388.78;4991885;28;21455;-80
2020/12/09 09:20:41;;;;;;;13.48;2.83;;;;;;;15.30;39.25;100390.75;4958198;28;20027;-78
2020/12/09 09:23:06;;;;;;;13.13;3.88;;;;;;;15.49;38.85;100390.03;4992411;28;20033;-78
2020/12/09 09:25:34;;;;;;;12.18;2.75;;;;;;;15.47;38.89;100384.91;4992472;28;20041;-78
2020/12/09 09:28:00;;;;;;;18.40;3.15;;;;;;;15.46;38.93;100372.28;4992447;28;20098;-85
2020/12/09 09:30:25;;;;;;;7.35;2.28;;;;;;;15.32;39.21;100368.38;4992256;28;20026;-82
2020/12/09 09:32:52;;;;;;;15.38;3.42;;;;;;;15.57;38.78;100356.06;4992287;28;20052;-84
2020/12/09 09:35:18;;;;;;;14.55;3.20;;;;;;;15.52;38.78;100350.81;4992205;28;20026;-85
2020/12/09 09:37:44;;;;;;;12.55;3.15;;;;;;;15.65;38.61;100351.53;4991870;28;20022;-86
2020/12/09 09:40:11;;;;;;;6.50;2.53;;;;;;;15.64;38.57;100344.41;4990999;28;20054;-80
2020/12/09 09:42:37;;;;;;;12.38;2.38;;;;;;;15.69;38.59;100333.13;4991867;28;20552;-77
2020/12/09 09:45:09;;;;;;;8.88;3.20;;;;;;;15.70;38.44;100324.50;4995055;28;20428;-83
2020/12/09 09:47:36;;;;;;;14.43;2.97;;;;;;;15.73;38.25;100323.03;4995168;28;20022;-85
2020/12/09 09:50:04;;;;;;;18.35;3.60;;;;;;;15.80;38.47;100323.97;4992336;28;20022;-83
2020/12/09 09:52:29;;;;;;;9.60;2.78;;;;;;;15.81;38.47;100322.81;4995779;28;20041;-83
2020/12/09 09:54:55;;;;;;;17.45;2.85;;;;;;;15.92;38.34;100311.25;4994798;28;20026;-77
2020/12/09 09:57:20;;;;;;;19.65;3.30;;;;;;;15.91;38.42;100299.41;4994931;28;20022;-78
2020/12/09 09:59:46;;;;;;;15.50;2.95;;;;;;;15.61;39.36;100292.78;4996474;28;20057;-80
2020/12/09 10:02:11;;;;;;;13.10;2.85;;;;;;;15.78;38.79;100301.47;4996096;28;20561;-77
2020/12/09 10:04:37;;;;;;;15.95;5.53;;;;;;;15.87;38.66;100286.72;4984903;28;20067;-77
2020/12/09 10:07:03;;;;;;;11.50;3.85;;;;;;;15.89;38.89;100285.22;4975788;28;20062;-77
2020/12/09 10:09:28;;;;;;;14.45;6.40;;;;;;;15.83;38.95;100281.13;4976489;28;20054;-77
2020/12/09 10:11:54;;;;;;;9.18;3.10;;;;;;;15.82;39.10;100268.53;4976448;28;20054;-77
2020/12/09 10:14:20;;;;;;;13.35;3.13;;;;;;;15.89;38.89;100270.63;4976294;28;20031;-79
2020/12/09 10:16:46;;;;;;;16.65;3.70;;;;;;;15.79;39.18;100269.22;4993923;28;20059;-82
2020/12/09 10:19:12;;;;;;;14.50;5.32;;;;;;;15.92;38.63;100267.94;4994797;28;20066;-83
2020/12/09 10:21:38;;;;;;;16.05;6.78;;;;;;;16.06;38.67;100264.72;4994956;28;20018;-78
2020/12/09 10:24:06;;;;;;;18.58;10.20;;;;;;;16.02;38.62;100258.31;4991603;28;20018;-77
2020/12/09 10:26:35;;;;;;;25.65;16.55;;;;;;;16.07;38.61;100253.31;4994964;28;20026;-77
2020/12/09 10:29:03;;;;;;;62.95;40.05;;;;;;;16.05;38.41;100241.88;4994776;28;20049;-79
2020/12/09 10:31:38;;;;;;;137.25;83.78;;;;;;;15.90;38.57;100239.97;4990563;28;20026;-84
2020/12/09 10:34:06;;;;;;;33.38;17.20;;;;;;;15.94;38.67;100237.28;4991685;28;20026;-83
2020/12/09 10:36:32;;;;;;;19.05;5.10;;;;;;;16.00;38.72;100235.84;4994474;28;20603;-83
2020/12/09 10:38:57;;;;;;;13.57;5.50;;;;;;;15.97;38.80;100231.06;4992283;28;20039;-84
2020/12/09 10:41:23;;;;;;;20.38;5.15;;;;;;;15.83;39.08;100220.53;4994566;28;20026;-83
2020/12/09 10:43:50;;;;;;;17.30;5.95;;;;;;;16.07;38.39;100216.69;4994756;28;20022;-84
2020/12/09 10:46:17;;;;;;;14.38;5.53;;;;;;;16.13;38.46;100211.69;4993754;28;20036;-82
2020/12/09 10:48:43;;;;;;;12.15;3.78;;;;;;;16.11;38.58;100208.53;4989506;28;20061;-83
2020/12/09 10:51:08;;;;;;;14.38;3.15;;;;;;;16.28;38.06;100199.78;4992403;28;20062;-84
2020/12/09 10:53:34;;;;;;;12.90;4.32;;;;;;;16.23;38.51;100197.31;4992990;28;20445;-77
2020/12/09 10:55:59;;;;;;;12.63;4.75;;;;;;;16.13;38.65;100195.97;4993868;28;20022;-81
2020/12/09 10:58:27;;;;;;;11.90;2.78;;;;;;;16.15;38.66;100181.81;4990309;28;20421;-78
2020/12/09 11:00:53;;;;;;;9.32;3.55;;;;;;;16.24;38.51;100183.16;4994119;28;20101;-79
2020/12/09 11:03:19;;;;;;;18.83;8.48;;;;;;;16.14;38.59;100180.22;4993646;28;20508;-83
2020/12/09 11:05:45;;;;;;;17.13;10.13;;;;;;;16.22;38.43;100171.72;4975552;28;20050;-78
2020/12/09 11:08:11;;;;;;;18.23;11.07;;;;;;;16.29;38.46;100173.81;4993736;28;20101;-83
2020/12/09 11:10:37;;;;;;;13.60;4.63;;;;;;;16.26;38.49;100160.78;4992940;28;20022;-83
2020/12/09 11:13:02;;;;;;;11.95;3.38;;;;;;;16.40;38.21;100146.44;4992591;28;20041;-83
2020/12/09 11:15:28;;;;;;;6.38;2.67;;;;;;;16.42;38.24;100147.69;4990620;28;20034;-80
2020/12/09 11:17:53;;;;;;;15.90;4.70;;;;;;;16.46;38.14;100131.97;4991459;28;20381;-76
2020/12/09 11:20:19;;;;;;;15.48;3.70;;;;;;;16.43;38.48;100129.19;4993963;28;20591;-78